Terminal Aerodrome Forecast
Issued by NWS

Home | Current Version | Previous Version | Text Only | Print | Product List | Glossary On
Versions: 1 2 3 4 5 6 7 8 9 10 11 12 13 14 15 16 17 18 19 20 21 22 23 24 25 26 27 28 29 30
150
FTUS43 KDLH 182329
TAFBRD
TAF
KBRD 182329Z 1900/1924 35004KT P6SM VCTS SCT040CB SCT120
     FM190200 VRB03KT P6SM SCT250
     FM190700 00000KT 4SM BR FEW200
     FM191000 00000KT 1SM BR FEW200
     FM191400 23005KT P6SM FEW250
     FM191800 23009KT P6SM FEW250=

USA.gov is the U.S. government's official web portal to all federal, state and local government web resources and services.